createdAt,value
2019-02-23T00:01:20.268Z,10.70
2019-02-23T00:03:48.382Z,12.20
2019-02-23T00:06:16.459Z,12.30
2019-02-23T00:08:44.691Z,10.53
2019-02-23T00:11:12.762Z,11.77
2019-02-23T00:13:40.911Z,11.40
2019-02-23T00:16:09.012Z,14.37
2019-02-23T00:18:37.515Z,13.07
2019-02-23T00:21:05.556Z,11.53
2019-02-23T00:23:33.742Z,11.50
2019-02-23T00:26:01.902Z,12.10
2019-02-23T00:28:30.394Z,12.47
2019-02-23T00:30:58.505Z,11.83
2019-02-23T00:33:26.573Z,11.37
2019-02-23T00:35:54.704Z,11.37
2019-02-23T00:38:22.839Z,10.87
2019-02-23T00:40:50.960Z,9.77
2019-02-23T00:43:19.032Z,10.37
2019-02-23T00:45:47.150Z,16.03
2019-02-23T00:48:15.216Z,10.43
2019-02-23T00:50:43.729Z,11.37
2019-02-23T00:53:11.804Z,11.60
2019-02-23T00:55:39.946Z,11.33
2019-02-23T00:58:09.339Z,11.03
2019-02-23T01:00:37.408Z,12.73
2019-02-23T01:03:05.697Z,12.60
2019-02-23T01:05:33.754Z,11.20
2019-02-23T01:08:02.218Z,14.67
2019-02-23T01:10:30.274Z,10.50
2019-02-23T01:12:58.527Z,12.00
2019-02-23T01:15:26.870Z,11.93
2019-02-23T01:17:54.997Z,11.87
2019-02-23T01:20:23.444Z,11.00
2019-02-23T01:22:51.551Z,10.63
2019-02-23T01:25:19.913Z,11.13
2019-02-23T01:27:48.094Z,13.00
2019-02-23T01:30:16.324Z,11.30
2019-02-23T01:32:44.487Z,12.17
2019-02-23T01:35:12.564Z,12.63
2019-02-23T01:37:40.711Z,14.30
2019-02-23T01:40:10.067Z,12.17
2019-02-23T01:42:39.273Z,13.77
2019-02-23T01:45:11.229Z,15.37
2019-02-23T01:47:39.755Z,15.33
2019-02-23T01:50:08.637Z,14.37
2019-02-23T01:52:36.784Z,15.03
2019-02-23T01:55:07.284Z,13.27
2019-02-23T01:57:35.427Z,16.50
2019-02-23T02:00:06.968Z,15.27
2019-02-23T02:02:35.323Z,14.83
2019-02-23T02:05:04.103Z,14.70
2019-02-23T02:07:32.207Z,15.67
2019-02-23T02:10:00.617Z,16.40
2019-02-23T02:12:29.353Z,15.37
2019-02-23T02:14:59.312Z,15.20
2019-02-23T02:17:27.408Z,16.77
2019-02-23T02:19:56.225Z,20.10
2019-02-23T02:22:24.321Z,17.20
2019-02-23T02:24:52.398Z,23.00
2019-02-23T02:27:20.530Z,21.43
2019-02-23T02:29:48.772Z,19.27
2019-02-23T02:32:17.740Z,18.63
2019-02-23T02:34:45.856Z,18.63
2019-02-23T02:37:14.165Z,19.03
2019-02-23T02:39:42.289Z,18.97
2019-02-23T02:42:10.518Z,19.07
2019-02-23T02:44:40.421Z,20.70
2019-02-23T02:47:08.607Z,20.00
2019-02-23T02:49:36.714Z,21.53
2019-02-23T02:52:04.977Z,20.33
2019-02-23T02:54:33.222Z,18.70
2019-02-23T02:57:01.277Z,19.43
2019-02-23T02:59:29.719Z,19.03
2019-02-23T03:01:58.989Z,21.07
2019-02-23T03:04:27.408Z,19.13
2019-02-23T03:06:55.635Z,18.67
2019-02-23T03:09:23.717Z,19.10
2019-02-23T03:11:51.934Z,19.03
2019-02-23T03:14:20.831Z,24.03
2019-02-23T03:16:49.032Z,18.77
2019-02-23T03:19:17.157Z,20.93
2019-02-23T03:21:45.375Z,20.57
2019-02-23T03:24:13.720Z,21.80
2019-02-23T03:26:41.922Z,22.67
2019-02-23T03:29:09.991Z,24.30
2019-02-23T03:31:38.222Z,20.93
2019-02-23T03:34:06.275Z,22.50
2019-02-23T03:36:34.576Z,20.33
2019-02-23T03:39:04.060Z,20.73
2019-02-23T03:41:32.362Z,20.33
2019-02-23T03:44:00.501Z,20.67
2019-02-23T03:46:28.635Z,19.60
2019-02-23T03:48:56.662Z,17.90
2019-02-23T03:51:24.949Z,20.00
2019-02-23T03:53:53.269Z,17.60
2019-02-23T03:56:21.584Z,16.17
2019-02-23T03:58:49.711Z,17.53
2019-02-23T04:01:17.767Z,16.53
2019-02-23T04:03:45.941Z,21.17
2019-02-23T04:06:13.968Z,20.43
2019-02-23T04:08:42.572Z,19.50
2019-02-23T04:11:10.824Z,19.67
2019-02-23T04:13:39.233Z,18.10
2019-02-23T04:16:07.645Z,19.97
2019-02-23T04:18:35.736Z,16.83
2019-02-23T04:21:03.932Z,19.70
2019-02-23T04:23:32.158Z,17.30
2019-02-23T04:26:00.389Z,17.53
2019-02-23T04:28:28.989Z,14.37
2019-02-23T04:30:57.121Z,17.87
2019-02-23T04:33:25.900Z,14.73
2019-02-23T04:35:54.112Z,18.33
2019-02-23T04:38:22.286Z,16.53
2019-02-23T04:40:51.041Z,14.03
2019-02-23T04:43:19.206Z,17.13
2019-02-23T04:45:47.445Z,16.83
2019-02-23T04:48:15.533Z,14.20
2019-02-23T04:50:44.237Z,15.13
2019-02-23T04:53:12.461Z,18.07
2019-02-23T04:55:40.511Z,18.37
2019-02-23T04:58:09.328Z,17.03
2019-02-23T05:00:37.525Z,17.07
2019-02-23T05:03:06.297Z,16.37
2019-02-23T05:05:34.453Z,16.63
2019-02-23T05:08:02.594Z,15.00
2019-02-23T05:10:30.715Z,16.13
2019-02-23T05:12:58.802Z,15.50
2019-02-23T05:15:27.393Z,14.97
2019-02-23T05:17:55.719Z,15.63
2019-02-23T05:20:23.795Z,17.00
2019-02-23T05:22:52.219Z,18.03
2019-02-23T05:25:20.613Z,17.00
2019-02-23T05:27:50.492Z,17.23
2019-02-23T05:30:18.627Z,20.67
2019-02-23T05:32:47.499Z,22.33
2019-02-23T05:35:15.684Z,18.03
2019-02-23T05:37:43.788Z,19.90
2019-02-23T05:40:12.146Z,16.53
2019-02-23T05:42:40.313Z,14.93
2019-02-23T05:45:09.035Z,19.40
2019-02-23T05:47:37.141Z,15.43
2019-02-23T05:50:05.935Z,17.43
2019-02-23T05:52:34.022Z,19.00
2019-02-23T05:55:02.563Z,19.70
2019-02-23T05:57:30.881Z,18.80
2019-02-23T05:59:59.074Z,18.83
2019-02-23T06:02:27.343Z,19.07
2019-02-23T06:04:55.440Z,21.03
2019-02-23T06:07:24.015Z,18.03
2019-02-23T06:09:52.112Z,18.47
2019-02-23T06:12:21.227Z,18.60
2019-02-23T06:14:53.385Z,22.27
2019-02-23T06:17:21.529Z,17.83
2019-02-23T06:19:50.713Z,19.17
2019-02-23T06:22:18.830Z,18.70
2019-02-23T06:24:47.550Z,17.83
2019-02-23T06:27:17.482Z,20.47
2019-02-23T06:29:47.360Z,18.43
2019-02-23T06:32:15.623Z,19.37
2019-02-23T06:34:45.458Z,21.97
2019-02-23T06:37:13.663Z,18.07
2019-02-23T06:39:41.846Z,22.43
2019-02-23T06:42:10.004Z,21.90
2019-02-23T06:44:39.897Z,18.97
2019-02-23T06:47:08.054Z,19.80
2019-02-23T06:49:36.284Z,26.13
2019-02-23T06:52:04.829Z,21.63
2019-02-23T06:54:33.456Z,23.93
2019-02-23T06:57:02.085Z,23.80
2019-02-23T06:59:30.285Z,23.40
2019-02-23T07:01:58.442Z,20.33
2019-02-23T07:04:26.652Z,21.57
2019-02-23T07:06:54.826Z,21.63
2019-02-23T07:09:22.891Z,19.73
2019-02-23T07:11:51.084Z,22.20
2019-02-23T07:14:19.367Z,21.03
2019-02-23T07:16:47.513Z,21.77
2019-02-23T07:19:15.585Z,21.57
2019-02-23T07:21:43.926Z,22.83
2019-02-23T07:24:12.013Z,23.10
2019-02-23T07:26:40.330Z,20.23
2019-02-23T07:29:08.551Z,21.90
2019-02-23T07:31:36.794Z,22.27
2019-02-23T07:34:04.925Z,24.57
2019-02-23T07:36:33.061Z,20.63
2019-02-23T07:39:02.190Z,24.93
2019-02-23T07:41:30.406Z,21.90
2019-02-23T07:43:58.619Z,23.00
2019-02-23T07:46:26.768Z,20.10
2019-02-23T07:48:54.968Z,22.60
2019-02-23T07:51:23.136Z,21.80
2019-02-23T07:53:51.292Z,21.63
2019-02-23T07:56:19.665Z,25.90
2019-02-23T07:58:48.129Z,22.33
2019-02-23T08:01:16.623Z,23.63
2019-02-23T08:03:44.787Z,23.93
2019-02-23T08:06:13.151Z,24.13
2019-02-23T08:08:41.303Z,21.50
2019-02-23T08:11:09.688Z,25.10
2019-02-23T08:13:37.819Z,25.77
2019-02-23T08:16:06.302Z,23.53
2019-02-23T08:18:34.791Z,23.07
2019-02-23T08:21:03.115Z,26.17
2019-02-23T08:23:31.621Z,25.00
2019-02-23T08:26:00.011Z,23.50
2019-02-23T08:28:28.166Z,22.23
2019-02-23T08:30:56.348Z,23.23
2019-02-23T08:33:24.502Z,24.97
2019-02-23T08:35:52.765Z,22.33
2019-02-23T08:38:20.822Z,29.00
2019-02-23T08:40:50.849Z,26.23
2019-02-23T08:43:20.800Z,22.53
2019-02-23T08:45:50.841Z,22.33
2019-02-23T08:48:18.935Z,22.50
2019-02-23T08:50:48.136Z,26.13
2019-02-23T08:53:16.280Z,22.27
2019-02-23T08:55:44.392Z,21.80
2019-02-23T08:58:12.777Z,27.23
2019-02-23T09:00:41.002Z,27.60
2019-02-23T09:03:09.262Z,24.13
2019-02-23T09:05:38.194Z,26.90
2019-02-23T09:08:06.413Z,24.20
2019-02-23T09:10:34.599Z,27.10
2019-02-23T09:13:02.962Z,22.33
2019-02-23T09:15:37.958Z,25.40
2019-02-23T09:18:06.121Z,30.73
2019-02-23T09:20:34.664Z,21.07
2019-02-23T09:23:02.892Z,28.67
2019-02-23T09:25:31.479Z,22.43
2019-02-23T09:28:00.433Z,22.30
2019-02-23T09:30:30.171Z,27.17
2019-02-23T09:32:58.375Z,18.53
2019-02-23T09:35:26.897Z,20.07
2019-02-23T09:37:54.985Z,19.93
2019-02-23T09:40:23.061Z,21.17
2019-02-23T09:42:51.339Z,21.07
2019-02-23T09:45:19.568Z,22.53
2019-02-23T09:47:47.829Z,21.93
2019-02-23T09:50:16.030Z,20.70
2019-02-23T09:52:44.955Z,21.40
2019-02-23T09:55:13.292Z,23.40
2019-02-23T09:57:41.370Z,20.57
2019-02-23T10:00:10.243Z,24.63
2019-02-23T10:02:38.434Z,17.67
2019-02-23T10:05:07.057Z,22.97
2019-02-23T10:07:35.331Z,21.67
2019-02-23T10:10:03.623Z,21.83
2019-02-23T10:12:32.332Z,21.53
2019-02-23T10:15:00.463Z,22.77
2019-02-23T10:17:28.558Z,21.10
2019-02-23T10:19:56.713Z,20.03
2019-02-23T10:22:24.837Z,20.87
2019-02-23T10:24:53.015Z,20.43
2019-02-23T10:27:21.122Z,25.60
2019-02-23T10:29:49.198Z,22.23
2019-02-23T10:32:17.323Z,22.17
2019-02-23T10:34:46.017Z,20.53
2019-02-23T10:37:14.107Z,21.27
2019-02-23T10:39:42.868Z,21.33
2019-02-23T10:42:11.031Z,20.87
2019-02-23T10:44:39.348Z,20.43
2019-02-23T10:47:07.669Z,24.17
2019-02-23T10:49:37.079Z,19.43
2019-02-23T10:52:05.227Z,21.73
2019-02-23T10:54:34.869Z,20.07
2019-02-23T10:57:03.464Z,20.30
2019-02-23T10:59:32.300Z,21.13
2019-02-23T11:02:00.676Z,21.63
2019-02-23T11:04:28.827Z,21.27
2019-02-23T11:06:57.460Z,19.87
2019-02-23T11:09:33.118Z,20.80
2019-02-23T11:12:01.601Z,21.70
2019-02-23T11:14:29.796Z,21.77
2019-02-23T11:16:58.396Z,20.30
2019-02-23T11:19:26.651Z,21.53
2019-02-23T11:21:55.183Z,22.17
2019-02-23T11:24:23.452Z,23.07
2019-02-23T11:26:51.545Z,19.90
2019-02-23T11:29:19.860Z,22.97
2019-02-23T11:31:48.058Z,21.70
2019-02-23T11:34:16.456Z,21.20
2019-02-23T11:36:44.511Z,20.20
2019-02-23T11:39:13.008Z,22.53
2019-02-23T11:41:41.309Z,22.07
2019-02-23T11:44:09.867Z,28.37
2019-02-23T11:46:38.317Z,21.03
2019-02-23T11:49:08.200Z,19.47
2019-02-23T11:51:36.749Z,20.77
2019-02-23T11:54:04.835Z,20.97
2019-02-23T11:56:33.243Z,20.20
2019-02-23T11:59:01.357Z,22.30
2019-02-23T12:01:29.694Z,23.37
2019-02-23T12:03:57.723Z,22.77
2019-02-23T12:06:25.786Z,26.57
2019-02-23T12:08:53.968Z,21.60
2019-02-23T12:11:22.450Z,21.93
2019-02-23T12:13:51.447Z,21.50
2019-02-23T12:16:19.644Z,18.53
2019-02-23T12:18:47.721Z,20.73
2019-02-23T12:21:16.363Z,20.27
2019-02-23T12:23:44.474Z,20.50
2019-02-23T12:26:12.547Z,21.33
2019-02-23T12:28:40.677Z,19.70
2019-02-23T12:31:09.224Z,20.67
2019-02-23T12:33:37.403Z,19.90
2019-02-23T12:36:05.513Z,25.80
2019-02-23T12:38:33.923Z,22.77
2019-02-23T12:41:02.050Z,21.70
2019-02-23T12:43:30.558Z,23.00
2019-02-23T12:45:58.809Z,20.63
2019-02-23T12:48:27.160Z,21.10
2019-02-23T12:50:55.470Z,19.93
2019-02-23T12:53:23.986Z,27.10
2019-02-23T12:55:52.559Z,19.30
2019-02-23T12:58:22.916Z,20.70
2019-02-23T13:00:51.492Z,20.17
2019-02-23T13:03:20.188Z,19.07
2019-02-23T13:05:48.324Z,21.47
2019-02-23T13:08:16.780Z,29.83
2019-02-23T13:10:45.402Z,20.80
2019-02-23T13:14:19.990Z,21.63
2019-02-23T13:17:44.474Z,22.50
2019-02-23T13:21:20.774Z,22.00
2019-02-23T13:25:15.704Z,21.10
2019-02-23T13:28:35.000Z,21.13
2019-02-23T13:32:00.791Z,24.23
2019-02-23T13:35:02.414Z,18.50
2019-02-23T13:38:01.927Z,20.73
2019-02-23T13:41:28.369Z,22.57
2019-02-23T13:44:37.636Z,20.60
2019-02-23T13:47:40.940Z,19.80
2019-02-23T13:51:11.167Z,19.37
2019-02-23T13:54:38.316Z,18.57
2019-02-23T13:57:30.162Z,20.30
2019-02-23T14:00:39.455Z,19.33
2019-02-23T14:04:00.876Z,19.53
2019-02-23T14:07:31.984Z,19.67
2019-02-23T14:11:03.893Z,21.10
2019-02-23T14:14:02.126Z,20.40
2019-02-23T14:17:44.667Z,18.63
2019-02-23T14:20:51.139Z,19.87
2019-02-23T14:24:05.649Z,19.77
2019-02-23T14:27:19.243Z,20.50
2019-02-23T14:30:31.971Z,20.20
2019-02-23T14:34:03.084Z,20.97
2019-02-23T14:37:42.363Z,19.03
2019-02-23T14:40:54.259Z,22.27
2019-02-23T14:44:12.478Z,18.07
2019-02-23T14:47:42.485Z,18.57
2019-02-23T14:51:12.756Z,20.97
2019-02-23T14:54:45.177Z,19.87
2019-02-23T14:58:20.901Z,18.70
2019-02-23T15:01:33.782Z,19.10
2019-02-23T15:04:54.556Z,17.40
2019-02-23T15:08:12.746Z,19.87
2019-02-23T15:11:49.898Z,18.07
2019-02-23T15:15:08.884Z,17.17
2019-02-23T15:18:22.231Z,17.37
2019-02-23T15:21:41.453Z,19.40
2019-02-23T15:25:13.250Z,17.67
2019-02-23T15:28:37.469Z,16.20
2019-02-23T15:31:20.553Z,18.77
2019-02-23T15:34:50.926Z,18.77
2019-02-23T15:37:57.906Z,16.33
2019-02-23T15:41:27.909Z,17.67
2019-02-23T15:44:27.130Z,19.03
2019-02-23T15:47:55.951Z,17.57
2019-02-23T15:50:24.225Z,15.73
2019-02-23T15:52:52.487Z,15.40
2019-02-23T15:55:26.032Z,15.33
2019-02-23T15:57:51.388Z,15.30
2019-02-23T16:00:19.559Z,16.93
2019-02-23T16:02:48.335Z,18.43
2019-02-23T16:05:16.635Z,17.03
2019-02-23T16:07:44.847Z,18.80
2019-02-23T16:10:13.422Z,22.00
2019-02-23T16:12:41.646Z,16.63
2019-02-23T16:15:09.923Z,17.33
2019-02-23T16:17:38.478Z,15.63
2019-02-23T16:20:07.800Z,14.60
2019-02-23T16:22:35.899Z,15.27
2019-02-23T16:25:04.191Z,15.47
2019-02-23T16:27:32.484Z,15.40
2019-02-23T16:30:01.335Z,18.20
2019-02-23T16:32:29.649Z,15.90
2019-02-23T16:34:57.756Z,17.47
2019-02-23T16:37:25.845Z,15.63
2019-02-23T16:39:53.961Z,14.40
2019-02-23T16:42:23.092Z,20.60
2019-02-23T16:44:51.609Z,14.57
2019-02-23T16:47:19.990Z,14.93
2019-02-23T16:49:48.405Z,17.03
2019-02-23T16:52:17.223Z,13.17
2019-02-23T16:54:45.356Z,14.63
2019-02-23T16:57:13.564Z,14.50
2019-02-23T16:59:41.653Z,13.50
2019-02-23T17:02:10.057Z,15.53
2019-02-23T17:04:38.317Z,13.13
2019-02-23T17:07:06.848Z,15.60
2019-02-23T17:09:34.976Z,13.83
2019-02-23T17:12:03.027Z,15.50
2019-02-23T17:14:31.171Z,14.17
2019-02-23T17:16:59.770Z,17.47
2019-02-23T17:19:27.900Z,14.00
2019-02-23T17:21:56.030Z,17.63
2019-02-23T17:24:24.584Z,19.43
2019-02-23T17:26:52.893Z,16.70
2019-02-23T17:29:20.973Z,15.30
2019-02-23T17:31:49.203Z,14.27
2019-02-23T17:34:17.478Z,15.83
2019-02-23T17:36:46.422Z,16.07
2019-02-23T17:39:14.499Z,17.37
2019-02-23T17:41:42.943Z,14.03
2019-02-23T17:44:11.399Z,16.07
2019-02-23T17:46:39.471Z,17.93
2019-02-23T17:49:07.571Z,19.97
2019-02-23T17:51:37.304Z,15.07
2019-02-23T17:54:07.350Z,16.50
2019-02-23T17:56:35.488Z,14.27
2019-02-23T17:59:04.223Z,16.83
2019-02-23T18:01:32.392Z,15.80
2019-02-23T18:04:01.220Z,17.23
2019-02-23T18:06:31.287Z,18.10
2019-02-23T18:09:01.150Z,18.87
2019-02-23T18:11:29.786Z,17.90
2019-02-23T18:13:58.081Z,29.07
2019-02-23T18:16:26.317Z,30.17
2019-02-23T18:18:54.449Z,19.50
2019-02-23T18:21:22.989Z,23.90
2019-02-23T18:23:51.263Z,18.27
2019-02-23T18:26:21.177Z,20.20
2019-02-23T18:28:50.096Z,16.20
2019-02-23T18:31:18.584Z,16.17
2019-02-23T18:33:46.851Z,18.23
2019-02-23T18:36:15.200Z,16.87
2019-02-23T18:38:43.408Z,30.93
2019-02-23T18:41:11.476Z,20.97
2019-02-23T18:43:40.027Z,19.63
2019-02-23T18:46:08.309Z,17.90
2019-02-23T18:48:37.018Z,16.37
2019-02-23T18:51:05.388Z,17.10
2019-02-23T18:53:33.561Z,21.57
2019-02-23T18:56:02.647Z,20.20
2019-02-23T18:58:31.242Z,21.93
2019-02-23T19:00:59.708Z,21.50
2019-02-23T19:03:28.157Z,24.60
2019-02-23T19:05:56.261Z,24.53
2019-02-23T19:08:24.545Z,20.40
2019-02-23T19:11:01.515Z,19.20
2019-02-23T19:13:29.583Z,17.27
2019-02-23T19:15:58.199Z,22.43
2019-02-23T19:18:26.316Z,22.40
2019-02-23T19:20:54.552Z,19.33
2019-02-23T19:23:22.625Z,18.53
2019-02-23T19:25:50.777Z,15.67
2019-02-23T19:28:18.863Z,17.77
2019-02-23T19:30:47.693Z,18.60
2019-02-23T19:33:16.192Z,16.27
2019-02-23T19:35:44.306Z,17.77
2019-02-23T19:38:12.429Z,16.07
2019-02-23T19:40:40.629Z,19.33
2019-02-23T19:43:08.765Z,16.97
2019-02-23T19:45:36.897Z,27.17
2019-02-23T19:48:05.458Z,15.50
2019-02-23T19:50:38.929Z,15.63
2019-02-23T19:53:07.043Z,18.70
2019-02-23T19:55:35.153Z,18.33
2019-02-23T19:58:03.464Z,20.57
2019-02-23T20:00:31.578Z,26.70
2019-02-23T20:02:59.672Z,16.20
2019-02-23T20:05:27.779Z,19.23
2019-02-23T20:07:56.763Z,20.93
2019-02-23T20:10:25.154Z,21.23
2019-02-23T20:12:53.432Z,24.20
2019-02-23T20:15:21.563Z,19.13
2019-02-23T20:17:49.712Z,14.30
2019-02-23T20:20:18.599Z,17.23
2019-02-23T20:22:46.748Z,14.63
2019-02-23T20:25:15.801Z,16.77
2019-02-23T20:27:44.014Z,15.47
2019-02-23T20:30:12.367Z,16.13
2019-02-23T20:32:40.965Z,15.77
2019-02-23T20:35:09.439Z,13.83
2019-02-23T20:37:37.550Z,14.20
2019-02-23T20:40:06.499Z,14.50
2019-02-23T20:42:34.852Z,16.03
2019-02-23T20:45:21.892Z,18.97
2019-02-23T20:47:51.299Z,19.00
2019-02-23T20:50:19.497Z,22.70
2019-02-23T20:52:47.623Z,24.23
2019-02-23T20:55:16.629Z,20.77
2019-02-23T20:57:44.869Z,20.87
2019-02-23T21:00:13.040Z,21.07
2019-02-23T21:02:41.292Z,18.47
2019-02-23T21:05:09.636Z,18.07
2019-02-23T21:07:38.000Z,16.40
2019-02-23T21:10:06.786Z,16.97
2019-02-23T21:12:34.941Z,17.87
2019-02-23T21:15:06.101Z,19.43
2019-02-23T21:17:34.178Z,16.60
2019-02-23T21:20:02.721Z,15.43
2019-02-23T21:22:30.819Z,18.57
2019-02-23T21:24:59.366Z,21.23
2019-02-23T21:27:27.530Z,19.83
2019-02-23T21:29:55.900Z,19.23
2019-02-23T21:32:24.090Z,18.07
2019-02-23T21:34:53.071Z,16.67
2019-02-23T21:37:22.209Z,18.30
2019-02-23T21:39:50.618Z,15.00
2019-02-23T21:42:19.074Z,17.73
2019-02-23T21:44:47.233Z,15.17
2019-02-23T21:47:15.309Z,15.63
2019-02-23T21:49:43.483Z,16.20
2019-02-23T21:52:11.582Z,18.27
2019-02-23T21:54:39.633Z,17.23
2019-02-23T21:57:07.761Z,18.27
2019-02-23T21:59:36.133Z,18.80
2019-02-23T22:02:04.384Z,15.90
2019-02-23T22:04:32.502Z,16.80
2019-02-23T22:07:00.588Z,15.93
2019-02-23T22:09:28.801Z,20.00
2019-02-23T22:11:57.054Z,18.90
2019-02-23T22:14:25.241Z,22.07
2019-02-23T22:16:53.339Z,18.17
2019-02-23T22:19:21.422Z,18.57
2019-02-23T22:21:51.199Z,19.03
2019-02-23T22:24:19.422Z,20.37
2019-02-23T22:26:47.844Z,21.50
2019-02-23T22:29:15.931Z,21.50
2019-02-23T22:31:44.914Z,21.93
2019-02-23T22:34:13.071Z,20.80
2019-02-23T22:36:41.233Z,21.67
2019-02-23T22:39:09.589Z,20.63
2019-02-23T22:41:37.670Z,21.03
2019-02-23T22:44:05.772Z,19.53
2019-02-23T22:46:33.883Z,20.60
2019-02-23T22:49:01.965Z,19.40
2019-02-23T22:51:30.127Z,20.27
2019-02-23T22:53:58.185Z,19.63
2019-02-23T22:56:26.284Z,21.13
2019-02-23T22:58:54.394Z,21.37
2019-02-23T23:01:22.733Z,22.23
2019-02-23T23:03:50.871Z,20.67
2019-02-23T23:06:18.950Z,19.30
2019-02-23T23:08:47.074Z,19.50
2019-02-23T23:11:16.953Z,21.13
2019-02-23T23:13:45.079Z,18.60
2019-02-23T23:16:13.233Z,22.47
2019-02-23T23:18:41.378Z,19.80
2019-02-23T23:21:09.445Z,18.80
2019-02-23T23:23:37.574Z,22.13
2019-02-23T23:26:06.568Z,21.80
2019-02-23T23:28:34.738Z,21.43
2019-02-23T23:31:02.776Z,18.27
2019-02-23T23:33:31.007Z,24.10
2019-02-23T23:35:59.174Z,22.83
2019-02-23T23:38:27.307Z,21.70
2019-02-23T23:40:55.491Z,22.87
2019-02-23T23:43:23.604Z,22.43
2019-02-23T23:45:51.691Z,21.57
2019-02-23T23:48:20.038Z,24.00
2019-02-23T23:50:48.148Z,21.33
2019-02-23T23:53:16.313Z,18.93
2019-02-23T23:55:44.517Z,21.03
2019-02-23T23:58:12.607Z,23.53
